Terminal Aerodrome Forecast
Issued by NWS

Home | Current Version | Previous Version | Text Only | Print | Product List | Glossary On
Versions: 1 2 3 4 5 6 7 8 9 10 11 12 13 14 15 16 17 18 19
121
FTUS41 KBGM 280540
TAFRME
TAF
KRME 280540Z 2806/2906 12004KT P6SM OVC050
     FM280900 00000KT 5SM BR OVC020
     FM281300 00000KT 5SM BR OVC015
     FM281800 VRB03KT 5SM -SHRA OVC008
     FM282200 31005KT P6SM OVC010=

USA.gov is the U.S. government's official web portal to all federal, state and local government web resources and services.